VCMEG weather

Aviosuperficie di Meggiana
Piode (VC), Piedmont, Italy

Public forecast

Using degrees Celsius for public forecast. Weather courtesy of forecast.io.

METAR (pilot weather report)

Closest report is Aosta Airport, 28.1 nm (52.1 km) W. Retrieved 2019/07/24 06:20 UTC (7 minutes ago):

LIMW 240620Z AUTO VRB01KT 9999 NCD 24/18 Q1021

TAF (pilot weather forecast)

Forecast is more than 12 hours old.

Closest forecast is Cameri Air Base [MIL], 29.5 nm (54.6 km) ESE. Retrieved 2010/11/18 12:24 UTC (9 years ago):

TAF TAF LIMN 181100Z 1812/1921 VRB03KT 1500 RA BR BKN030